Time;durP1;ratioP1;P1;durP2;ratioP2;P2;SDS_P1;SDS_P2;PMS_P1;PMS_P2;Temp;Humidity;BMP_temperature;BMP_pressure;BME280_temperature;BME280_humidity;BME280_pressure;Samples;Min_cycle;Max_cycle;Signal;HPM_P1;HPM_P2
2022/08/21 00:00:48;;;;;;;10.38;9.48;;;;;;;22.95;75.14;100431.94;4978121;28;103813;-52
2022/08/21 00:03:15;;;;;;;10.02;9.13;;;;;;;22.95;75.30;100445.81;4978206;28;102068;-52
2022/08/21 00:05:45;;;;;;;10.85;9.70;;;;;;;22.94;75.35;100452.53;4977409;28;101966;-53
2022/08/21 00:08:12;;;;;;;10.20;9.38;;;;;;;22.95;75.17;100448.59;4978162;28;102047;-53
2022/08/21 00:10:39;;;;;;;10.05;9.25;;;;;;;22.94;75.47;100452.53;4977537;28;103934;-53
2022/08/21 00:13:06;;;;;;;10.13;9.32;;;;;;;22.94;75.34;100452.53;4978719;28;102050;-53
2022/08/21 00:15:35;;;;;;;9.82;8.95;;;;;;;22.93;75.43;100451.72;4977253;28;102712;-53
2022/08/21 00:18:03;;;;;;;;;;;;;;;22.93;75.09;100451.72;4979679;28;102268;-53
2022/08/21 00:20:31;;;;;;;10.45;9.48;;;;;;;22.95;75.23;100459.69;4977750;28;104071;-52
2022/08/21 00:22:57;;;;;;;10.07;9.15;;;;;;;22.94;75.15;100463.66;4977490;28;102244;-53
2022/08/21 00:25:25;;;;;;;10.55;9.65;;;;;;;22.93;75.32;100465.59;4977861;28;102300;-53
2022/08/21 00:27:51;;;;;;;9.98;9.18;;;;;;;22.93;75.44;100467.56;4979235;28;102231;-53
2022/08/21 00:30:19;;;;;;;9.60;8.80;;;;;;;22.93;75.31;100467.56;4976671;28;104127;-53
2022/08/21 00:32:46;;;;;;;9.23;8.52;;;;;;;22.93;75.31;100465.59;4978450;28;101993;-53
2022/08/21 00:35:17;;;;;;;9.68;8.82;;;;;;;22.93;75.24;100448.13;4977660;28;102258;-53
2022/08/21 00:37:43;;;;;;;9.63;8.77;;;;;;;22.94;75.25;100460.88;4976640;28;102327;-53
2022/08/21 00:40:13;;;;;;;10.02;9.13;;;;;;;22.93;75.08;100456.47;4957713;28;103998;-52
2022/08/21 00:42:40;;;;;;;10.00;8.98;;;;;;;22.93;75.26;100462.00;4958630;28;102376;-53
2022/08/21 00:45:08;;;;;;;9.13;8.35;;;;;;;22.94;75.29;100463.66;4975751;28;102465;-53
2022/08/21 00:47:34;;;;;;;9.63;8.85;;;;;;;22.92;75.36;100472.31;4978614;28;102163;-53
2022/08/21 00:50:01;;;;;;;10.25;9.45;;;;;;;22.93;75.38;100478.66;4997363;28;104044;-53
2022/08/21 00:52:31;;;;;;;9.52;8.75;;;;;;;22.93;75.13;100470.34;4998229;28;102275;-52
2022/08/21 00:54:59;;;;;;;10.25;9.38;;;;;;;22.92;75.33;100455.66;4991909;28;102070;-53
2022/08/21 00:57:30;;;;;;;10.07;9.27;;;;;;;22.92;75.32;100452.09;4978718;28;102184;-53
2022/08/21 01:00:01;;;;;;;9.48;8.68;;;;;;;22.92;75.37;100460.41;4977265;28;103790;-52
2022/08/21 01:02:27;;;;;;;9.23;8.43;;;;;;;22.92;75.41;100461.22;4977881;28;102072;-53
2022/08/21 01:04:54;;;;;;;9.60;8.80;;;;;;;22.92;75.44;100460.41;4977199;28;102466;-53
2022/08/21 01:07:20;;;;;;;9.98;9.02;;;;;;;22.91;75.40;100448.47;4977597;28;103064;-53
2022/08/21 01:09:49;;;;;;;9.30;8.50;;;;;;;22.91;75.45;100454.03;4967569;28;104114;-53
2022/08/21 01:12:15;;;;;;;9.82;8.98;;;;;;;22.91;75.48;100459.59;4963904;28;102232;-51
2022/08/21 01:14:42;;;;;;;10.70;9.70;;;;;;;22.91;75.18;100458.78;4957875;28;102084;-52
2022/08/21 01:17:11;;;;;;;10.07;9.18;;;;;;;22.90;75.18;100446.88;4991044;28;102397;-52
2022/08/21 01:19:38;;;;;;;9.18;8.43;;;;;;;22.91;75.31;100458.78;4992860;28;103969;-52
2022/08/21 01:22:06;;;;;;;10.45;9.55;;;;;;;22.91;75.39;100453.22;4978803;28;102211;-52
2022/08/21 01:24:36;;;;;;;9.63;8.82;;;;;;;22.90;75.38;100446.88;4984130;28;102182;-53
2022/08/21 01:27:04;;;;;;;10.65;9.75;;;;;;;22.89;75.37;100445.25;4978298;28;102489;-52
2022/08/21 01:29:37;;;;;;;10.07;9.02;;;;;;;22.91;75.24;100447.69;4969048;28;104118;-53
2022/08/21 01:32:07;;;;;;;10.35;9.50;;;;;;;22.91;75.51;100447.69;4957960;28;102310;-52
2022/08/21 01:34:37;;;;;;;9.77;8.98;;;;;;;22.91;75.42;100453.22;4956125;28;102547;-53
2022/08/21 01:37:05;;;;;;;9.23;8.52;;;;;;;22.90;75.36;100452.44;4958337;28;102156;-53
2022/08/21 01:39:33;;;;;;;10.47;9.47;;;;;;;22.89;75.30;100448.03;4956632;28;104033;-53
2022/08/21 01:41:59;;;;;;;9.40;8.70;;;;;;;22.89;75.54;100439.69;4957488;28;102138;-53
2022/08/21 01:44:27;;;;;;;10.00;9.10;;;;;;;22.89;75.38;100438.91;4956973;28;102245;-53
2022/08/21 01:46:54;;;;;;;10.45;9.57;;;;;;;22.90;75.33;100446.06;4969165;28;102224;-53
2022/08/21 01:49:21;;;;;;;10.03;9.13;;;;;;;22.89;75.38;100438.91;4975944;28;103933;-52
2022/08/21 01:51:48;;;;;;;9.50;8.68;;;;;;;22.90;75.47;100441.34;4977230;28;102309;-53
2022/08/21 01:54:15;;;;;;;10.10;9.27;;;;;;;22.89;75.42;100438.91;4962746;28;102115;-52
2022/08/21 01:56:46;;;;;;;10.45;9.55;;;;;;;22.90;75.32;100440.50;4965441;28;102324;-53
2022/08/21 01:59:14;;;;;;;9.50;8.70;;;;;;;22.89;75.45;100436.13;4976167;28;103901;-52
2022/08/21 02:01:40;;;;;;;10.30;9.30;;;;;;;22.89;75.43;100438.91;4977294;28;102309;-53
2022/08/21 02:04:08;;;;;;;9.02;8.23;;;;;;;22.89;75.43;100436.13;4975821;28;102210;-52
2022/08/21 02:06:36;;;;;;;9.25;8.55;;;;;;;22.88;75.44;100438.09;4977743;28;102243;-53
2022/08/21 02:09:03;;;;;;;10.07;9.18;;;;;;;22.88;75.20;100438.09;4975131;28;104084;-53
2022/08/21 02:11:31;;;;;;;10.55;9.63;;;;;;;22.88;75.44;100437.31;4976340;28;102354;-53
2022/08/21 02:13:58;;;;;;;10.07;9.27;;;;;;;22.88;75.24;100442.84;4976208;28;102154;-53
2022/08/21 02:16:25;;;;;;;9.80;8.95;;;;;;;22.90;75.43;100443.28;4977673;28;102053;-53
2022/08/21 02:18:51;;;;;;;9.80;9.00;;;;;;;22.88;75.24;100437.31;4989317;28;104067;-53
2022/08/21 02:21:18;;;;;;;9.68;8.88;;;;;;;22.89;75.56;100433.34;4978214;28;102212;-53
2022/08/21 02:23:45;;;;;;;8.75;8.05;;;;;;;22.87;75.47;100430.16;4976201;28;102241;-52
2022/08/21 02:26:12;;;;;;;10.45;9.45;;;;;;;22.87;75.24;100430.94;4976915;28;102464;-53
2022/08/21 02:28:42;;;;;;;9.40;8.63;;;;;;;22.88;75.23;100437.31;4975680;28;103881;-53
2022/08/21 02:31:08;;;;;;;9.52;8.73;;;;;;;22.87;75.41;100433.72;4976610;28;102185;-53
2022/08/21 02:33:35;;;;;;;9.40;8.60;;;;;;;22.88;75.51;100442.84;4966427;28;103869;-53
2022/08/21 02:36:02;;;;;;;9.88;9.07;;;;;;;22.88;75.49;100446.44;4965181;28;102179;-53
2022/08/21 02:38:31;;;;;;;9.30;8.60;;;;;;;22.88;75.40;100451.19;4959677;28;103929;-53
2022/08/21 02:40:57;;;;;;;;;;;;;;;22.87;75.50;100444.81;4957561;28;101851;-52
2022/08/21 02:43:25;;;;;;;9.50;8.70;;;;;;;22.88;75.51;100442.84;4956205;28;101994;-53
2022/08/21 02:45:54;;;;;;;9.38;8.68;;;;;;;22.87;75.49;100455.91;4958514;28;102314;-53
2022/08/21 02:48:24;;;;;;;8.82;8.02;;;;;;;22.87;75.62;100449.56;4972372;28;104095;-53
2022/08/21 02:50:53;;;;;;;9.50;8.52;;;;;;;22.88;75.66;100451.19;4979818;28;102070;-53
2022/08/21 02:53:19;;;;;;;;;;;;;;;22.87;75.58;100452.34;4979575;28;102152;-53
2022/08/21 02:55:47;;;;;;;9.13;8.32;;;;;;;22.87;75.54;100457.91;4962675;28;102232;-53
2022/08/21 02:58:15;;;;;;;8.82;8.13;;;;;;;22.86;75.30;100462.63;4965639;28;103888;-53
2022/08/21 03:00:43;;;;;;;9.33;8.63;;;;;;;22.86;75.42;100451.53;4979874;28;102140;-53
2022/08/21 03:03:14;;;;;;;14.60;8.63;;;;;;;22.87;75.43;100452.34;4963695;28;102061;-52
2022/08/21 03:05:41;;;;;;;9.40;8.60;;;;;;;22.87;75.48;100452.34;4975636;28;102140;-53
2022/08/21 03:08:10;;;;;;;9.55;8.73;;;;;;;22.87;75.32;100441.25;4965157;28;103925;-53
2022/08/21 03:10:39;;;;;;;9.25;8.45;;;;;;;22.87;75.32;100449.56;4960894;28;101927;-53
2022/08/21 03:13:09;;;;;;;9.60;8.70;;;;;;;22.86;75.46;100445.97;4979305;28;102292;-53
2022/08/21 03:15:38;;;;;;;9.27;8.48;;;;;;;22.87;75.48;100450.38;4980545;28;102252;-53
2022/08/21 03:18:06;;;;;;;8.88;8.07;;;;;;;22.87;75.38;100453.16;4985652;28;103955;-52
2022/08/21 03:20:36;;;;;;;9.20;8.40;;;;;;;22.86;75.44;100456.28;4987534;28;102327;-53
2022/08/21 03:23:04;;;;;;;9.95;9.05;;;;;;;22.87;75.61;100452.34;4978835;28;102202;-52
2022/08/21 03:25:34;;;;;;;9.15;8.35;;;;;;;22.86;75.44;100445.16;4971282;28;102224;-53
2022/08/21 03:28:03;;;;;;;9.23;8.40;;;;;;;22.86;75.55;100447.94;4962909;28;104104;-52
2022/08/21 03:30:31;;;;;;;9.43;8.63;;;;;;;22.87;75.42;100460.66;4979419;28;102081;-53
2022/08/21 03:32:58;;;;;;;9.00;8.30;;;;;;;22.86;75.30;100461.81;4978546;28;102436;-53
2022/08/21 03:35:25;;;;;;;9.10;8.40;;;;;;;22.86;75.50;100457.06;4972270;28;102636;-52
2022/08/21 03:37:54;;;;;;;9.15;8.35;;;;;;;22.87;75.45;100457.91;4963385;28;103933;-53
2022/08/21 03:40:22;;;;;;;9.20;8.50;;;;;;;22.87;75.45;100460.66;4959903;28;102492;-53
2022/08/21 03:42:48;;;;;;;9.30;8.57;;;;;;;22.86;75.43;100468.16;4958767;28;102344;-54
2022/08/21 03:45:16;;;;;;;9.43;8.63;;;;;;;22.87;75.64;100460.66;4965647;28;102266;-53
2022/08/21 03:47:52;;;;;;;9.95;8.95;;;;;;;22.86;75.51;100465.41;4966459;28;103019;-57
2022/08/21 03:50:18;;;;;;;9.15;8.35;;;;;;;22.87;75.37;100463.44;4970683;28;101998;-53
2022/08/21 03:52:45;;;;;;;9.77;8.93;;;;;;;22.87;75.57;100463.44;4959349;28;102924;-53
2022/08/21 03:55:13;;;;;;;9.48;8.68;;;;;;;22.87;75.43;100466.22;4959519;28;102506;-53
2022/08/21 03:57:40;;;;;;;9.52;8.73;;;;;;;22.86;75.35;100467.38;4957689;28;104677;-53
2022/08/21 04:00:09;;;;;;;9.57;8.82;;;;;;;22.87;75.57;100463.44;4959524;28;101939;-53
2022/08/21 04:02:36;;;;;;;9.00;8.30;;;;;;;22.86;75.50;100462.63;4970938;28;102651;-53
2022/08/21 04:05:04;;;;;;;9.60;8.80;;;;;;;22.87;75.62;100464.25;4979624;28;102543;-53
2022/08/21 04:07:31;;;;;;;9.60;8.80;;;;;;;22.87;75.48;100466.22;4977292;28;103900;-53
2022/08/21 04:09:57;;;;;;;9.77;9.02;;;;;;;22.87;75.46;100480.09;4964450;28;101994;-52
2022/08/21 04:12:25;;;;;;;9.05;8.35;;;;;;;22.87;75.47;100480.09;4968915;28;102178;-53
2022/08/21 04:14:52;;;;;;;9.65;8.85;;;;;;;22.88;75.49;100484.47;4971986;28;102272;-53
2022/08/21 04:17:19;;;;;;;9.77;8.95;;;;;;;22.87;75.54;100485.66;4959896;28;103836;-53
2022/08/21 04:19:45;;;;;;;9.20;8.40;;;;;;;22.86;75.57;100484.81;4972860;28;102464;-53
2022/08/21 04:22:13;;;;;;;8.75;8.05;;;;;;;22.87;75.54;100483.66;4958599;28;102182;-53
2022/08/21 04:24:39;;;;;;;9.43;8.73;;;;;;;22.86;75.72;100479.25;4959217;28;102519;-52
2022/08/21 04:27:06;;;;;;;9.77;8.98;;;;;;;22.87;75.58;100475.34;4960993;28;103919;-53
2022/08/21 04:29:34;;;;;;;10.10;9.30;;;;;;;22.88;75.50;100476.16;4959200;28;102185;-53
2022/08/21 04:32:01;;;;;;;9.70;8.83;;;;;;;22.88;75.35;100470.59;4974182;28;102579;-53
2022/08/21 04:34:29;;;;;;;9.95;9.15;;;;;;;22.87;75.51;100469.81;4959803;28;102557;-53
2022/08/21 04:36:55;;;;;;;10.05;9.15;;;;;;;22.87;75.70;100474.53;4969590;28;104001;-53
2022/08/21 04:39:21;;;;;;;9.05;8.25;;;;;;;22.87;75.54;100477.31;4978451;28;102393;-53
2022/08/21 04:41:48;;;;;;;9.85;9.05;;;;;;;22.87;75.64;100477.31;4977957;28;102355;-52
2022/08/21 04:44:15;;;;;;;9.85;9.05;;;;;;;22.88;75.39;100479.72;4978597;28;102396;-53
2022/08/21 04:46:43;;;;;;;9.32;8.52;;;;;;;22.87;75.44;100477.31;4977897;28;104140;-53
2022/08/21 04:49:09;;;;;;;9.47;8.63;;;;;;;22.88;75.60;100470.59;4974867;28;102480;-53
2022/08/21 04:51:39;;;;;;;10.18;9.25;;;;;;;22.88;75.56;100473.38;4957984;28;102086;-53
2022/08/21 04:54:10;;;;;;;9.63;8.65;;;;;;;22.88;75.48;100465.84;4963552;28;102453;-53
2022/08/21 04:56:41;;;;;;;10.10;9.20;;;;;;;22.88;75.50;100465.06;4974235;28;103896;-53
2022/08/21 04:59:16;;;;;;;10.70;9.80;;;;;;;22.89;75.52;100461.09;4977733;28;102308;-53
2022/08/21 05:01:45;;;;;;;10.52;9.63;;;;;;;22.88;75.58;100460.31;4977307;28;102470;-53
2022/08/21 05:04:14;;;;;;;9.25;8.43;;;;;;;22.89;75.52;100461.09;4975308;28;102247;-53
2022/08/21 05:06:43;;;;;;;9.52;8.75;;;;;;;22.91;75.47;100458.78;4956828;28;107747;-52
2022/08/21 05:09:14;;;;;;;10.45;9.55;;;;;;;22.90;75.36;100462.69;4957602;28;102289;-52
2022/08/21 05:11:41;;;;;;;11.25;10.10;;;;;;;22.91;75.38;100464.34;4962823;28;101933;-53
2022/08/21 05:14:08;;;;;;;10.45;9.57;;;;;;;22.91;75.42;100465.13;4976389;28;102231;-53
2022/08/21 05:16:35;;;;;;;9.57;8.77;;;;;;;22.92;75.48;100472.31;4959022;28;104013;-53
2022/08/21 05:19:03;;;;;;;9.65;8.85;;;;;;;22.92;75.44;100468.75;4977049;28;102353;-53
2022/08/21 05:21:29;;;;;;;9.87;8.97;;;;;;;22.93;75.61;100473.13;4967588;28;102191;-53
2022/08/21 05:23:56;;;;;;;9.70;8.90;;;;;;;22.93;75.43;100470.34;4958640;28;102117;-53
2022/08/21 05:26:23;;;;;;;9.35;8.65;;;;;;;22.94;75.25;100469.19;4957462;28;104045;-52
2022/08/21 05:28:49;;;;;;;9.55;8.70;;;;;;;22.95;75.22;100479.91;4971210;28;102595;-52
2022/08/21 05:31:16;;;;;;;9.90;9.00;;;;;;;22.97;75.36;100482.31;4973901;28;102280;-53
2022/08/21 05:33:42;;;;;;;9.20;8.45;;;;;;;22.96;75.29;100472.41;4971715;28;102304;-53
2022/08/21 05:36:10;;;;;;;10.23;9.30;;;;;;;22.97;75.28;100476.78;4966846;28;103750;-52
2022/08/21 05:38:36;;;;;;;10.17;9.27;;;;;;;22.98;75.44;100470.06;4957649;28;102500;-53
2022/08/21 05:41:03;;;;;;;9.85;9.02;;;;;;;22.99;75.26;100474.44;4957186;28;102153;-53
2022/08/21 05:43:32;;;;;;;9.98;9.07;;;;;;;22.99;75.16;100477.22;4958360;28;102131;-53
2022/08/21 05:45:59;;;;;;;9.77;8.98;;;;;;;23.01;75.30;100472.13;4957488;28;103560;-53
2022/08/21 05:48:26;;;;;;;14.73;9.75;;;;;;;23.01;75.23;100477.69;4967033;28;101911;-53
2022/08/21 05:50:52;;;;;;;10.55;9.45;;;;;;;23.03;75.23;100483.66;4977130;28;102576;-53
2022/08/21 05:53:22;;;;;;;9.90;9.00;;;;;;;23.04;75.35;100479.72;4977260;28;102335;-53
2022/08/21 05:55:50;;;;;;;10.18;9.27;;;;;;;23.06;75.06;100476.59;4974463;28;103858;-53
2022/08/21 05:58:20;;;;;;;10.75;9.82;;;;;;;23.06;75.03;100471.84;4957478;28;102250;-53
2022/08/21 06:00:48;;;;;;;10.43;9.43;;;;;;;23.09;75.14;100484.19;4960201;28;102779;-53
2022/08/21 06:03:17;;;;;;;10.23;9.33;;;;;;;23.09;75.04;100481.44;4967597;28;102396;-53
2022/08/21 06:05:45;;;;;;;10.27;9.38;;;;;;;23.09;75.12;100482.22;4972112;28;104028;-53
2022/08/21 06:08:12;;;;;;;10.88;9.88;;;;;;;23.11;75.07;100479.88;4965023;28;102214;-53
2022/08/21 06:10:41;;;;;;;9.77;8.88;;;;;;;23.12;75.01;100483.47;4971941;28;102212;-53
2022/08/21 06:13:08;;;;;;;10.85;9.85;;;;;;;23.13;75.00;100488.66;4985648;28;102474;-53
2022/08/21 06:15:36;;;;;;;11.07;9.98;;;;;;;23.13;75.09;100488.66;4976364;28;103997;-53
2022/08/21 06:18:02;;;;;;;10.88;9.52;;;;;;;23.17;74.95;100488.75;4968935;28;102420;-52
2022/08/21 06:20:29;;;;;;;10.77;9.88;;;;;;;23.19;74.95;100492.78;4973131;28;102415;-53
2022/08/21 06:22:56;;;;;;;10.50;9.50;;;;;;;23.19;74.94;100492.78;4977110;28;102127;-53
2022/08/21 06:25:22;;;;;;;11.07;10.07;;;;;;;23.21;75.05;100497.94;4975664;28;103940;-53
2022/08/21 06:27:51;;;;;;;11.55;10.50;;;;;;;23.20;74.86;100499.91;4976508;28;101949;-53
2022/08/21 06:30:17;;;;;;;11.52;10.38;;;;;;;23.21;74.78;100495.97;4976589;28;101950;-53
2022/08/21 06:32:45;;;;;;;10.30;9.40;;;;;;;23.20;74.85;100494.38;4973872;28;102351;-53
2022/08/21 06:35:11;;;;;;;10.90;9.93;;;;;;;23.21;74.97;100495.16;4972654;28;103967;-53
2022/08/21 06:37:38;;;;;;;10.30;9.40;;;;;;;23.19;74.98;100498.31;4970959;28;102160;-53
2022/08/21 06:40:06;;;;;;;10.80;9.70;;;;;;;23.19;75.07;100503.88;4965360;28;102419;-53
2022/08/21 06:42:33;;;;;;;10.52;9.52;;;;;;;23.18;74.97;100491.13;4973547;28;102174;-53
2022/08/21 06:45:01;;;;;;;10.73;9.63;;;;;;;23.18;74.89;100491.13;4974990;28;104019;-53
2022/08/21 06:47:27;;;;;;;11.13;10.17;;;;;;;23.19;75.11;100481.66;4966754;28;102287;-53
2022/08/21 06:49:54;;;;;;;10.68;9.77;;;;;;;23.19;74.95;100484.44;4975176;28;102403;-53
2022/08/21 06:52:20;;;;;;;10.20;9.27;;;;;;;23.20;74.95;100477.72;4968444;28;102281;-53
2022/08/21 06:54:46;;;;;;;10.38;9.52;;;;;;;23.21;74.76;100484.06;4955991;28;103942;-53
2022/08/21 06:57:13;;;;;;;10.68;9.13;;;;;;;23.24;74.79;100486.13;4960121;28;102297;-53
2022/08/21 06:59:39;;;;;;;10.90;9.90;;;;;;;23.26;74.88;100476.28;4975662;28;102274;-52
2022/08/21 07:02:07;;;;;;;12.35;11.27;;;;;;;23.29;74.87;100479.47;4966059;28;102257;-52
2022/08/21 07:04:34;;;;;;;11.18;10.23;;;;;;;23.31;74.81;100482.69;4971398;28;104050;-52
2022/08/21 07:07:01;;;;;;;12.18;11.07;;;;;;;23.32;74.69;100484.31;4971276;28;101994;-53
2022/08/21 07:09:27;;;;;;;11.68;10.68;;;;;;;23.32;74.94;100482.31;4963900;28;102340;-53
2022/08/21 07:11:57;;;;;;;10.73;9.82;;;;;;;23.30;74.82;100481.06;4957533;28;102460;-53
2022/08/21 07:14:24;;;;;;;10.23;9.32;;;;;;;23.30;75.09;100475.53;4955825;28;104032;-53
2022/08/21 07:16:51;;;;;;;11.23;10.25;;;;;;;23.27;74.90;100479.84;4976547;28;101933;-53
2022/08/21 07:19:19;;;;;;;10.85;9.85;;;;;;;23.27;75.12;100477.06;4986208;28;102124;-53
2022/08/21 07:21:46;;;;;;;11.98;10.55;;;;;;;23.25;74.87;100474.63;4964268;28;102162;-53
2022/08/21 07:24:12;;;;;;;10.50;9.63;;;;;;;23.24;74.85;100472.25;4973281;28;105619;-53
2022/08/21 07:26:39;;;;;;;11.60;10.50;;;;;;;23.23;74.97;100476.19;4966727;28;102222;-53
2022/08/21 07:29:06;;;;;;;11.57;10.43;;;;;;;23.20;74.87;100469.38;4973449;28;102513;-53
2022/08/21 07:31:32;;;;;;;11.38;10.38;;;;;;;23.19;75.08;100465.00;4972522;28;102350;-53
2022/08/21 07:33:59;;;;;;;11.18;10.07;;;;;;;23.21;75.34;100462.66;4974866;28;104563;-53
2022/08/21 07:36:27;;;;;;;10.82;9.93;;;;;;;23.23;75.36;100460.34;4974766;28;102196;-53
2022/08/21 07:38:53;;;;;;;10.20;9.30;;;;;;;23.24;75.10;100459.16;4962652;28;101985;-53
2022/08/21 07:41:22;;;;;;;11.90;10.85;;;;;;;23.29;74.81;100460.03;4980390;28;102355;-52
2022/08/21 07:43:49;;;;;;;11.10;10.10;;;;;;;23.31;75.07;100460.50;4973926;28;103934;-52
2022/08/21 07:46:16;;;;;;;11.73;10.23;;;;;;;23.31;74.92;100460.50;4960736;28;102185;-53
2022/08/21 07:48:43;;;;;;;12.25;11.15;;;;;;;23.32;74.92;100462.88;4968810;28;102027;-52
2022/08/21 07:51:11;;;;;;;11.20;10.13;;;;;;;23.33;74.79;100463.69;4978621;28;102087;-55
2022/08/21 07:53:39;;;;;;;12.27;11.18;;;;;;;23.33;74.68;100463.69;4965502;28;104204;-52
2022/08/21 07:56:08;;;;;;;12.05;11.00;;;;;;;23.32;74.89;100462.09;4965304;28;102204;-53
2022/08/21 07:58:34;;;;;;;12.27;11.20;;;;;;;23.33;74.93;100463.69;4958077;28;102644;-53
2022/08/21 08:01:01;;;;;;;11.35;10.38;;;;;;;23.32;74.95;100462.88;4977217;28;102603;-53
2022/08/21 08:03:27;;;;;;;11.18;10.18;;;;;;;23.32;74.83;100448.22;4977645;28;103956;-53
2022/08/21 08:05:54;;;;;;;11.20;10.30;;;;;;;23.35;74.88;100450.25;4978607;28;102019;-53
2022/08/21 08:08:21;;;;;;;11.68;10.55;;;;;;;23.37;74.77;100450.69;4977666;28;102744;-52
2022/08/21 08:10:50;;;;;;;11.38;10.48;;;;;;;23.39;74.85;100453.91;4971482;28;102155;-52
2022/08/21 08:13:16;;;;;;;11.80;10.73;;;;;;;23.40;74.64;100447.19;4973471;28;103923;-53
2022/08/21 08:15:43;;;;;;;11.52;10.60;;;;;;;23.44;74.75;100460.00;4964800;28;102216;-53
2022/08/21 08:18:10;;;;;;;11.20;10.05;;;;;;;23.46;74.66;100456.84;4978115;28;102391;-53
2022/08/21 08:20:37;;;;;;;11.43;10.52;;;;;;;23.49;74.65;100453.34;4971737;28;102317;-53
2022/08/21 08:23:03;;;;;;;12.02;11.02;;;;;;;23.47;74.54;100458.44;4977398;28;103933;-53
2022/08/21 08:25:31;;;;;;;12.30;11.30;;;;;;;23.45;74.77;100460.78;4978475;28;101993;-53
2022/08/21 08:27:58;;;;;;;11.45;10.55;;;;;;;23.41;74.48;100460.72;4970891;28;102299;-52
2022/08/21 08:30:25;;;;;;;12.95;10.43;;;;;;;23.39;74.66;100456.69;4959909;28;102243;-53
2022/08/21 08:32:52;;;;;;;11.20;10.25;;;;;;;23.35;74.93;100461.38;4963402;28;103938;-52
2022/08/21 08:35:19;;;;;;;11.75;10.65;;;;;;;23.33;74.71;100458.94;4963748;28;102251;-53
2022/08/21 08:37:46;;;;;;;10.48;9.60;;;;;;;23.34;74.62;100455.00;4969969;28;102342;-53
2022/08/21 08:40:18;;;;;;;11.23;10.32;;;;;;;23.34;74.63;100455.00;4978329;28;102649;-53
2022/08/21 08:42:47;;;;;;;11.55;10.57;;;;;;;23.36;74.57;100451.84;4975979;28;104073;-52
2022/08/21 08:45:17;;;;;;;12.10;11.10;;;;;;;23.35;74.87;100447.47;4977099;28;102472;-52
2022/08/21 08:47:47;;;;;;;11.05;10.05;;;;;;;23.40;74.93;100442.44;4970412;28;102590;-53
2022/08/21 08:50:20;;;;;;;12.02;10.80;;;;;;;23.44;74.91;100448.06;4978530;28;102235;-53
2022/08/21 08:52:52;;;;;;;12.57;11.43;;;;;;;23.44;74.95;100448.06;4976278;28;103885;-53
2022/08/21 08:55:23;;;;;;;11.57;10.57;;;;;;;23.47;74.93;100447.34;4977714;28;101957;-53
2022/08/21 08:57:53;;;;;;;11.13;10.20;;;;;;;23.48;74.95;100449.75;4977065;28;103678;-53
2022/08/21 09:00:24;;;;;;;11.93;10.88;;;;;;;23.47;74.75;100439.00;4978148;28;102312;-52
2022/08/21 09:02:53;;;;;;;12.65;11.43;;;;;;;23.47;74.86;100437.03;4977176;28;103912;-53
2022/08/21 09:05:25;;;;;;;11.32;10.30;;;;;;;23.47;74.89;100442.56;4977694;28;102435;-53
2022/08/21 09:08:14;;;;;;;12.73;11.50;;;;;;;23.48;74.84;100426.75;4972052;28;102375;-53
2022/08/21 09:10:49;;;;;;;12.18;10.60;;;;;;;23.50;75.10;100436.28;4983117;28;102264;-53
2022/08/21 09:13:23;;;;;;;11.70;10.52;;;;;;;23.53;75.07;100417.31;4968334;28;107997;-51
2022/08/21 09:16:00;;;;;;;13.35;11.98;;;;;;;23.54;74.94;100424.47;4984889;28;102811;-53
2022/08/21 09:18:38;;;;;;;11.85;10.60;;;;;;;23.56;74.94;100445.16;4971383;28;102607;-53
2022/08/21 09:21:14;;;;;;;12.55;11.45;;;;;;;23.54;74.93;100441.91;4966238;28;102282;-53
2022/08/21 09:23:51;;;;;;;13.18;11.35;;;;;;;23.60;75.42;100439.66;4969266;28;103904;-53
2022/08/21 09:26:20;;;;;;;13.02;11.73;;;;;;;23.59;75.29;100449.97;4971151;28;102054;-53
2022/08/21 09:28:52;;;;;;;14.93;11.85;;;;;;;23.59;75.55;100447.19;4968281;28;102269;-53
2022/08/21 09:31:25;;;;;;;13.40;12.20;;;;;;;23.61;75.31;100450.41;4966870;28;102143;-52
2022/08/21 09:33:58;;;;;;;13.82;12.15;;;;;;;23.62;75.48;100453.97;4958985;28;103927;-53
2022/08/21 09:36:33;;;;;;;13.50;12.10;;;;;;;23.60;75.56;100451.56;4970170;28;102151;-53
2022/08/21 09:38:59;;;;;;;12.98;11.68;;;;;;;23.59;75.59;100449.19;4960275;28;102428;-52
2022/08/21 09:41:28;;;;;;;12.68;11.38;;;;;;;23.54;75.43;100452.22;4986234;28;102431;-52
2022/08/21 09:43:55;;;;;;;16.33;13.15;;;;;;;23.53;75.54;100451.44;4958543;28;103888;-53
2022/08/21 09:46:25;;;;;;;14.20;12.27;;;;;;;23.52;75.93;100438.72;4996784;28;102295;-52
2022/08/21 09:48:53;;;;;;;13.43;12.20;;;;;;;23.48;75.72;100430.31;4968744;28;102006;-52
2022/08/21 09:51:23;;;;;;;14.30;13.00;;;;;;;23.50;75.80;100413.28;4967125;28;102310;-53
2022/08/21 09:53:52;;;;;;;14.48;12.48;;;;;;;23.51;75.80;100403.75;4965991;28;103939;-53
2022/08/21 09:59:19;;;;;;;12.88;11.57;;;;;;;23.50;76.00;100414.06;4969691;28;103032;-53
2022/08/21 10:01:51;;;;;;;12.88;11.48;;;;;;;23.53;76.08;100404.22;4972684;28;102100;-52
2022/08/21 10:04:21;;;;;;;12.93;11.68;;;;;;;23.53;75.92;100403.41;4973614;28;103946;-52
2022/08/21 10:06:48;;;;;;;13.45;12.05;;;;;;;23.50;76.18;100414.06;4966865;28;103064;-53
2022/08/21 10:09:17;;;;;;;12.18;10.90;;;;;;;23.52;76.18;100415.69;4967333;28;102206;-53
2022/08/21 10:11:56;;;;;;;;;;;;;;;23.50;75.80;100421.59;4972124;28;102560;-53
2022/08/21 10:14:38;;;;;;;12.48;11.02;;;;;;;23.55;75.92;100426.06;4964921;28;103943;-53
2022/08/21 10:17:17;;;;;;;13.80;11.18;;;;;;;23.54;75.88;100430.81;4974819;28;102351;-53
2022/08/21 10:19:52;;;;;;;13.10;11.25;;;;;;;23.53;75.92;100418.09;4968515;28;102158;-53
2022/08/21 10:22:31;;;;;;;13.95;11.20;;;;;;;23.53;75.80;100426.44;4973185;28;102329;-53
2022/08/21 10:25:05;;;;;;;13.02;11.65;;;;;;;23.53;75.83;100448.66;4967536;28;104080;-53
2022/08/21 10:27:39;;;;;;;12.02;10.68;;;;;;;23.52;75.44;100455.38;4965613;28;102251;-53
2022/08/21 10:30:09;;;;;;;14.50;12.02;;;;;;;23.51;75.82;100470.44;4978193;28;102046;-52
2022/08/21 10:33:01;;;;;;;13.15;11.90;;;;;;;23.50;75.32;100468.81;4977936;28;102040;-53
2022/08/21 10:35:32;;;;;;;12.40;11.27;;;;;;;23.48;75.69;100457.28;4968526;28;108077;-54
2022/08/21 10:38:19;;;;;;;12.38;11.13;;;;;;;23.49;75.43;100464.44;4974945;28;102321;-52
2022/08/21 10:40:55;;;;;;;12.23;11.02;;;;;;;23.46;75.47;100467.94;4976086;28;102489;-53
2022/08/21 10:43:35;;;;;;;12.95;11.75;;;;;;;23.45;75.52;100477.47;4969231;28;102728;-53
2022/08/21 10:46:12;;;;;;;14.75;12.52;;;;;;;23.43;75.37;100474.22;4956369;28;103848;-53
2022/08/21 10:48:47;;;;;;;13.47;11.73;;;;;;;23.43;75.38;100471.44;4967282;28;102368;-53
2022/08/21 10:51:20;;;;;;;12.90;11.57;;;;;;;23.41;75.55;100477.38;4975536;28;101966;-53
2022/08/21 10:53:55;;;;;;;12.65;11.38;;;;;;;23.39;75.42;100495.56;4977144;28;102453;-53
2022/08/21 10:56:24;;;;;;;11.88;10.65;;;;;;;23.37;75.11;100497.88;4956919;28;104067;-53
2022/08/21 10:59:04;;;;;;;12.18;11.07;;;;;;;23.35;75.40;100494.69;4970456;28;102173;-53
2022/08/21 11:01:38;;;;;;;11.88;10.60;;;;;;;23.34;75.32;100495.88;4976334;28;102417;-52
2022/08/21 11:04:12;;;;;;;12.57;11.48;;;;;;;23.33;75.52;100491.47;4976408;28;102414;-53
2022/08/21 11:06:44;;;;;;;12.45;11.25;;;;;;;23.33;75.27;100485.91;4983223;28;103873;-53
2022/08/21 11:09:14;;;;;;;12.77;11.18;;;;;;;23.30;75.40;100486.63;4989229;28;102457;-51
2022/08/21 11:11:47;;;;;;;12.27;10.98;;;;;;;23.30;75.65;100476.34;4978791;28;102325;-52
2022/08/21 11:14:24;;;;;;;10.88;9.93;;;;;;;23.28;75.40;100464.78;4979406;28;102484;-53
2022/08/21 11:17:00;;;;;;;11.45;10.45;;;;;;;23.29;75.30;100457.25;4978414;28;104135;-53
2022/08/21 11:19:34;;;;;;;11.30;10.30;;;;;;;23.27;75.41;100444.56;4971737;28;103381;-52